Current Conditions
Scattered
Clouds



Pressure
1014.92 (hPa) - 29.97 (inHG)
Visibility

10.0 (km) - 6.2 (miles)
   Temperature
17  °C
Temperature
9  °C
Dewpoint
59  %
 Humidity
   Wind Speed
4.0  m/s
9  mph
14  km/h
8  kts
   Wind Direction
N
45°
E
90°
135°
S
180°
225°
W
270°
315°
 220°

South West
   Airport Data
ESGG
Gothenburg-Landvetter Airport
Metar :ESGG 251020Z 22008KT 170V270 9999 SCT032 17/09 Q1015
Fri 25th June 11:20 am
   Raw Metar Info
Raw METAR is the most common format in the world for the transmission of observational weather data. It is highly standardized through the International Civil Aviation Organization (ICAO), which allows it to be understood throughout most of the world.
   API Info
Data Provided by
https://www.checkwx.com/weather/ESGG

Aviation Weather providing METAR, TAF, AIRMET, SIGMET and OUTLOOK Weather Reports
   © Info
CSS/SVG/PHP scripts were developed by weather34.com for use in the weather34 template © 2015-2021

Guide Info provided by Metar-Wikipedia